Time;durP1;ratioP1;P1;durP2;ratioP2;P2;SDS_P1;SDS_P2;PMS_P1;PMS_P2;Temp;Humidity;BMP_temperature;BMP_pressure;BME280_temperature;BME280_humidity;BME280_pressure;Samples;Min_cycle;Max_cycle;Signal;HPM_P1;HPM_P2
2022/10/12 00:04:08;;;;;;;3.38;2.20;;;;;;;-146.19;100.00;65364.44;10383848;28;20037;-63
2022/10/12 00:09:28;;;;;;;4.22;2.38;;;;;;;-146.19;100.00;65364.44;10389953;28;20045;-61
2022/10/12 00:14:47;;;;;;;3.97;2.50;;;;;;;-146.19;100.00;65364.44;10381121;28;20065;-62
2022/10/12 00:20:07;;;;;;;4.32;2.55;;;;;;;-146.19;100.00;65364.44;10393216;28;20551;-62
2022/10/12 00:25:26;;;;;;;4.45;2.45;;;;;;;-146.19;100.00;65364.44;10387900;28;20116;-63
2022/10/12 00:30:46;;;;;;;4.70;2.40;;;;;;;-146.19;100.00;65364.44;10389243;28;20088;-62
2022/10/12 00:36:24;;;;;;;3.83;2.20;;;;;;;-146.19;100.00;65364.44;10392295;28;20095;-62
2022/10/12 00:41:43;;;;;;;4.38;2.70;;;;;;;-146.19;100.00;65364.44;10373432;28;20050;-63
2022/10/12 00:47:27;;;;;;;3.95;2.20;;;;;;;-146.19;100.00;65364.44;10389320;28;20049;-62
2022/10/12 00:52:57;;;;;;;4.13;2.50;;;;;;;-146.19;100.00;65364.44;10384829;28;20057;-63
2022/10/12 00:58:16;;;;;;;4.00;2.03;;;;;;;-146.19;100.00;65364.44;10389046;28;20571;-61
2022/10/12 01:03:36;;;;;;;3.83;1.98;;;;;;;-146.19;100.00;65364.44;10381650;28;20472;-62
2022/10/12 01:08:56;;;;;;;3.95;2.17;;;;;;;-146.19;100.00;65364.44;10393039;28;20511;-63
2022/10/12 01:14:16;;;;;;;4.68;2.25;;;;;;;-146.19;100.00;65364.44;10392133;28;20054;-62
2022/10/12 01:19:48;;;;;;;2.72;1.88;;;;;;;-146.19;100.00;65364.44;10389237;28;20485;-63
2022/10/12 01:25:24;;;;;;;2.65;1.83;;;;;;;-146.19;100.00;65364.44;10394697;28;20409;-62
2022/10/12 01:30:47;;;;;;;4.07;2.10;;;;;;;-146.19;100.00;65364.44;10377103;28;20053;-63
2022/10/12 01:36:25;;;;;;;3.03;2.00;;;;;;;-146.19;100.00;65364.44;10379973;28;20107;-63
2022/10/12 01:42:10;;;;;;;2.30;1.60;;;;;;;-146.19;100.00;65364.44;10392881;28;20084;-62
2022/10/12 01:47:30;;;;;;;2.80;1.90;;;;;;;-146.19;100.00;65364.44;10389560;28;20049;-62
2022/10/12 01:53:27;;;;;;;2.95;1.80;;;;;;;-146.19;100.00;65364.44;10380689;28;20045;-62
2022/10/12 01:58:56;;;;;;;2.35;1.80;;;;;;;-146.19;100.00;65364.44;10358139;28;20062;-62
2022/10/12 02:04:32;;;;;;;4.57;1.90;;;;;;;-146.19;100.00;65364.44;10376666;28;20402;-62
2022/10/12 02:09:53;;;;;;;2.65;1.80;;;;;;;-146.19;100.00;65364.44;10382050;28;20405;-62
2022/10/12 02:15:13;;;;;;;2.70;1.80;;;;;;;-146.19;100.00;65364.44;10374016;28;20049;-62
2022/10/12 02:20:33;;;;;;;3.47;2.03;;;;;;;-146.19;100.00;65364.44;10388591;28;20052;-60
2022/10/12 02:25:55;;;;;;;2.42;1.88;;;;;;;-146.19;100.00;65364.44;10381074;28;20508;-63
2022/10/12 02:31:17;;;;;;;2.78;1.75;;;;;;;-146.19;100.00;65364.44;10373054;28;20092;-63
2022/10/12 02:36:43;;;;;;;2.40;1.58;;;;;;;-146.19;100.00;65364.44;10392946;28;20045;-60
2022/10/12 02:42:07;;;;;;;3.72;1.90;;;;;;;-146.19;100.00;65364.44;10363447;28;20112;-62
2022/10/12 02:47:28;;;;;;;1.65;1.55;;;;;;;-146.19;100.00;65364.44;10364331;28;20049;-62
2022/10/12 02:52:49;;;;;;;2.33;1.65;;;;;;;-146.19;100.00;65364.44;10381183;28;20046;-61
2022/10/12 02:58:08;;;;;;;3.30;1.95;;;;;;;-146.19;100.00;65364.44;10374027;28;20061;-61
2022/10/12 03:03:28;;;;;;;2.40;1.60;;;;;;;-146.19;100.00;65364.44;10374051;28;20057;-62
2022/10/12 03:08:47;;;;;;;2.15;1.70;;;;;;;-146.19;100.00;65364.44;10399136;28;20416;-62
2022/10/12 03:14:06;;;;;;;2.50;1.80;;;;;;;-146.19;100.00;65364.44;10386824;28;20057;-62
2022/10/12 03:19:26;;;;;;;2.22;2.03;;;;;;;-146.19;100.00;65364.44;10386382;28;20046;-61
2022/10/12 03:24:45;;;;;;;1.98;1.63;;;;;;;-146.19;100.00;65364.44;10396844;28;20417;-62
2022/10/12 03:30:05;;;;;;;1.98;1.50;;;;;;;-146.19;100.00;65364.44;10386065;28;20045;-63
2022/10/12 03:35:24;;;;;;;2.38;1.67;;;;;;;-146.19;100.00;65364.44;10385813;28;20485;-62
2022/10/12 03:40:44;;;;;;;1.88;1.52;;;;;;;-146.19;100.00;65364.44;10374577;28;20073;-62
2022/10/12 03:46:04;;;;;;;2.17;1.45;;;;;;;-146.19;100.00;65364.44;10382997;28;20048;-61
2022/10/12 03:51:24;;;;;;;2.28;1.75;;;;;;;-146.19;100.00;65364.44;10371266;28;20525;-62
2022/10/12 03:56:43;;;;;;;2.25;1.60;;;;;;;-146.19;100.00;65364.44;10394740;28;20038;-62
2022/10/12 04:02:02;;;;;;;1.75;1.50;;;;;;;-146.19;100.00;65364.44;10371625;28;20053;-62
2022/10/12 04:07:22;;;;;;;2.25;1.70;;;;;;;-146.19;100.00;65364.44;10385129;28;20104;-62
2022/10/12 04:12:41;;;;;;;2.38;1.70;;;;;;;-146.19;100.00;65364.44;10367844;28;20097;-63
2022/10/12 04:18:01;;;;;;;2.97;1.58;;;;;;;-146.19;100.00;65364.44;10371870;28;20100;-62
2022/10/12 04:23:20;;;;;;;1.90;1.50;;;;;;;-146.19;100.00;65364.44;10393542;28;20049;-61
2022/10/12 04:28:39;;;;;;;1.92;1.60;;;;;;;-146.19;100.00;65364.44;10386285;28;20397;-63
2022/10/12 04:33:59;;;;;;;2.13;1.30;;;;;;;-146.19;100.00;65364.44;10384821;28;20038;-62
2022/10/12 04:39:19;;;;;;;2.55;1.50;;;;;;;-146.19;100.00;65364.44;10373698;28;20057;-63
2022/10/12 04:44:38;;;;;;;2.60;1.58;;;;;;;-146.19;100.00;65364.44;10384453;28;20046;-61
2022/10/12 04:49:57;;;;;;;2.70;1.70;;;;;;;-146.19;100.00;65364.44;10382311;28;20105;-62
2022/10/12 04:55:16;;;;;;;2.65;1.40;;;;;;;-146.19;100.00;65364.44;10392723;28;20507;-60
2022/10/12 05:00:36;;;;;;;6.82;2.30;;;;;;;-146.19;100.00;65364.44;10382464;28;20497;-62
2022/10/12 05:05:55;;;;;;;4.78;2.30;;;;;;;-146.19;100.00;65364.44;10374369;28;20058;-62
2022/10/12 05:11:14;;;;;;;5.03;2.30;;;;;;;-146.19;100.00;65364.44;10398785;28;20037;-59
2022/10/12 05:16:34;;;;;;;6.78;2.40;;;;;;;-146.19;100.00;65364.44;10390925;28;20489;-62
2022/10/12 05:21:53;;;;;;;6.13;2.30;;;;;;;-146.19;100.00;65364.44;10393711;28;20099;-62
2022/10/12 05:27:13;;;;;;;6.22;2.28;;;;;;;-146.19;100.00;65364.44;10396192;28;20069;-62
2022/10/12 05:32:32;;;;;;;6.97;2.63;;;;;;;-146.19;100.00;65364.44;10390923;28;20100;-61
2022/10/12 05:37:52;;;;;;;6.63;2.28;;;;;;;-146.19;100.00;65364.44;10397938;28;20077;-63
2022/10/12 05:43:11;;;;;;;6.85;2.67;;;;;;;-146.19;100.00;65364.44;10366258;28;20054;-63
2022/10/12 05:48:32;;;;;;;6.55;2.63;;;;;;;-146.19;100.00;65364.44;10382240;28;20049;-61
2022/10/12 05:53:51;;;;;;;6.78;2.40;;;;;;;-146.19;100.00;65364.44;10391465;28;20409;-62
2022/10/12 05:59:10;;;;;;;7.75;2.47;;;;;;;-146.19;100.00;65364.44;10383936;28;20505;-63
2022/10/12 06:04:30;;;;;;;4.93;2.20;;;;;;;-146.19;100.00;65364.44;10388711;28;20068;-62
2022/10/12 06:09:49;;;;;;;5.38;2.50;;;;;;;-146.19;100.00;65364.44;10382624;28;20050;-62
2022/10/12 06:15:09;;;;;;;4.57;2.20;;;;;;;-146.19;100.00;65364.44;10388797;28;20575;-63
2022/10/12 06:20:28;;;;;;;4.47;2.42;;;;;;;-146.19;100.00;65364.44;10388393;28;20386;-61
2022/10/12 06:25:49;;;;;;;3.70;2.28;;;;;;;-146.19;100.00;65364.44;10397668;28;20045;-62
2022/10/12 06:31:12;;;;;;;5.40;2.30;;;;;;;-146.19;100.00;65364.44;10365772;28;20555;-63
2022/10/12 06:36:32;;;;;;;5.25;2.28;;;;;;;-146.19;100.00;65364.44;10388347;28;20038;-60
2022/10/12 06:41:53;;;;;;;6.68;2.67;;;;;;;-146.19;100.00;65364.44;10378141;28;20045;-61
2022/10/12 06:47:12;;;;;;;5.35;2.40;;;;;;;-146.19;100.00;65364.44;10369787;28;20045;-62
2022/10/12 06:52:32;;;;;;;5.50;2.20;;;;;;;-146.19;100.00;65364.44;10376756;28;20088;-60
2022/10/12 06:57:51;;;;;;;5.35;2.60;;;;;;;-146.19;100.00;65364.44;10374560;28;20054;-61
2022/10/12 07:03:13;;;;;;;6.10;2.70;;;;;;;-146.19;100.00;65364.44;10386875;28;20042;-63
2022/10/12 07:08:33;;;;;;;4.38;2.30;;;;;;;-146.19;100.00;65364.44;10379142;28;20103;-62
2022/10/12 07:13:52;;;;;;;5.90;2.47;;;;;;;-146.19;100.00;65364.44;10385923;28;20046;-62
2022/10/12 07:19:12;;;;;;;5.38;2.08;;;;;;;-146.19;100.00;65364.44;10387170;28;20091;-63
2022/10/12 07:24:35;;;;;;;4.45;2.53;;;;;;;-146.19;100.00;65364.44;10393829;28;20038;-62
2022/10/12 07:29:54;;;;;;;4.00;2.70;;;;;;;-146.19;100.00;65364.44;10386177;28;20042;-61
2022/10/12 07:35:13;;;;;;;5.53;2.67;;;;;;;-146.19;100.00;65364.44;10382208;28;20048;-63
2022/10/12 07:40:33;;;;;;;4.93;2.83;;;;;;;-146.19;100.00;65364.44;10397384;28;20547;-63
2022/10/12 07:45:52;;;;;;;5.47;2.67;;;;;;;-146.19;100.00;65364.44;10384770;28;20096;-62
2022/10/12 07:51:12;;;;;;;4.25;2.72;;;;;;;-146.19;100.00;65364.44;10387434;28;20045;-63
2022/10/12 07:56:31;;;;;;;6.03;2.35;;;;;;;-146.19;100.00;65364.44;10359818;28;20054;-62
2022/10/12 08:01:50;;;;;;;4.88;3.20;;;;;;;-146.19;100.00;65364.44;10371590;28;20514;-62
2022/10/12 08:07:10;;;;;;;5.43;2.75;;;;;;;-146.19;100.00;65364.44;10390153;28;20038;-63
2022/10/12 08:12:30;;;;;;;4.90;2.88;;;;;;;-146.19;100.00;65364.44;10385602;28;20050;-63
2022/10/12 08:17:49;;;;;;;5.60;2.97;;;;;;;-146.19;100.00;65364.44;10385767;28;20042;-63
2022/10/12 08:23:09;;;;;;;5.88;2.78;;;;;;;-146.19;100.00;65364.44;10389416;28;20072;-62
2022/10/12 08:28:28;;;;;;;5.75;2.90;;;;;;;-146.19;100.00;65364.44;10378485;28;20072;-62
2022/10/12 08:33:48;;;;;;;5.47;2.97;;;;;;;-146.19;100.00;65364.44;10382713;28;20555;-62
2022/10/12 08:39:07;;;;;;;6.50;3.25;;;;;;;-146.19;100.00;65364.44;10390199;28;20045;-63
2022/10/12 08:44:40;;;;;;;4.75;3.10;;;;;;;-146.19;100.00;65364.44;10392989;28;20050;-62
2022/10/12 08:50:01;;;;;;;5.25;3.25;;;;;;;-146.19;100.00;65364.44;10394650;28;20038;-62
2022/10/12 08:55:39;;;;;;;5.80;3.05;;;;;;;-146.19;100.00;65364.44;10381805;28;20042;-62
2022/10/12 09:01:20;;;;;;;8.02;3.47;;;;;;;-146.19;100.00;65364.44;10367239;28;20540;-63
2022/10/12 09:06:46;;;;;;;5.28;3.17;;;;;;;-146.19;100.00;65364.44;10380855;28;20084;-62
2022/10/12 09:12:16;;;;;;;9.38;3.10;;;;;;;-146.19;100.00;65364.44;10390670;28;20038;-61
2022/10/12 09:17:39;;;;;;;7.40;3.25;;;;;;;-146.19;100.00;65364.44;10391237;28;20440;-61
2022/10/12 09:23:17;;;;;;;5.65;3.17;;;;;;;-146.19;100.00;65364.44;10373035;28;20088;-62
2022/10/12 09:28:40;;;;;;;9.60;3.60;;;;;;;-146.19;100.00;65364.44;10380881;28;20034;-61
2022/10/12 09:34:03;;;;;;;6.50;2.55;;;;;;;-146.19;100.00;65364.44;10382811;28;20040;-62
2022/10/12 09:39:36;;;;;;;10.45;3.47;;;;;;;-146.19;100.00;65364.44;10388926;28;20049;-60
2022/10/12 09:45:08;;;;;;;8.50;2.95;;;;;;;-146.19;100.00;65364.44;10374892;28;20439;-61
2022/10/12 09:50:39;;;;;;;5.63;2.80;;;;;;;-146.19;100.00;65364.44;10367160;28;20088;-62
2022/10/12 09:56:04;;;;;;;5.63;2.65;;;;;;;-146.19;100.00;65364.44;10340938;28;20050;-64
2022/10/12 10:01:25;;;;;;;8.23;2.88;;;;;;;-146.19;100.00;65364.44;10367045;28;20536;-61
2022/10/12 10:06:45;;;;;;;5.20;2.60;;;;;;;-146.19;100.00;65364.44;10374893;28;20088;-61
2022/10/12 10:12:21;;;;;;;7.78;2.80;;;;;;;-146.19;100.00;65364.44;10389454;28;20498;-62
2022/10/12 10:17:40;;;;;;;5.30;2.70;;;;;;;-146.19;100.00;65364.44;10366271;28;20040;-61
2022/10/12 10:23:01;;;;;;;6.20;2.80;;;;;;;-146.19;100.00;65364.44;10378442;28;20041;-61
2022/10/12 10:28:24;;;;;;;4.75;2.60;;;;;;;-146.19;100.00;65364.44;10372844;28;20042;-59
2022/10/12 10:33:43;;;;;;;4.25;2.53;;;;;;;-146.19;100.00;65364.44;10374061;28;20054;-61
2022/10/12 10:39:15;;;;;;;6.25;2.97;;;;;;;-146.19;100.00;65364.44;10388187;28;20045;-60
2022/10/12 10:44:35;;;;;;;4.82;2.75;;;;;;;-146.19;100.00;65364.44;10368734;28;20038;-60
2022/10/12 10:49:56;;;;;;;4.43;2.78;;;;;;;-146.19;100.00;65364.44;10381705;28;20044;-61
2022/10/12 10:55:21;;;;;;;3.88;2.88;;;;;;;-146.19;100.00;65364.44;10382229;28;20493;-61
2022/10/12 11:00:43;;;;;;;4.55;2.47;;;;;;;-146.19;100.00;65364.44;10362868;28;20416;-62
2022/10/12 11:06:35;;;;;;;4.00;2.42;;;;;;;-146.19;100.00;65364.44;10387622;28;20516;-62
2022/10/12 11:11:59;;;;;;;5.13;2.45;;;;;;;-146.19;100.00;65364.44;10365022;28;20045;-62
2022/10/12 11:17:20;;;;;;;4.28;2.53;;;;;;;-146.19;100.00;65364.44;10387259;28;20038;-62
2022/10/12 11:22:45;;;;;;;4.13;2.30;;;;;;;-146.19;100.00;65364.44;10390786;28;20053;-61
2022/10/12 11:28:06;;;;;;;4.47;2.20;;;;;;;-146.19;100.00;65364.44;10373564;28;20057;-62
2022/10/12 11:33:33;;;;;;;4.07;2.15;;;;;;;-146.19;100.00;65364.44;10371489;28;20062;-61
2022/10/12 11:39:00;;;;;;;3.25;2.33;;;;;;;-146.19;100.00;65364.44;10390570;28;20056;-60
2022/10/12 11:44:42;;;;;;;4.15;2.53;;;;;;;-146.19;100.00;65364.44;10386482;28;20508;-61
2022/10/12 11:50:14;;;;;;;2.70;2.10;;;;;;;-146.19;100.00;65364.44;10371443;28;20038;-61
2022/10/12 11:55:36;;;;;;;3.30;2.30;;;;;;;-146.19;100.00;65364.44;10371462;28;20040;-61
2022/10/12 12:01:23;;;;;;;3.47;2.35;;;;;;;-146.19;100.00;65364.44;10371690;28;20054;-61
2022/10/12 12:06:54;;;;;;;3.30;2.13;;;;;;;-146.19;100.00;65364.44;10380191;28;20038;-61
2022/10/12 12:12:20;;;;;;;4.57;2.40;;;;;;;-146.19;100.00;65364.44;10357841;28;20074;-62
2022/10/12 12:18:09;;;;;;;3.50;2.15;;;;;;;-146.19;100.00;65364.44;10385878;28;20042;-61
2022/10/12 12:23:52;;;;;;;3.15;2.28;;;;;;;-146.19;100.00;65364.44;10389474;28;20413;-61
2022/10/12 12:29:18;;;;;;;4.00;2.15;;;;;;;-146.19;100.00;65364.44;10359551;28;20046;-62
2022/10/12 12:34:54;;;;;;;4.30;2.00;;;;;;;-146.19;100.00;65364.44;10370371;28;20405;-61
2022/10/12 12:40:20;;;;;;;2.75;1.80;;;;;;;-146.19;100.00;65364.44;10356730;28;20046;-62
2022/10/12 12:45:58;;;;;;;3.55;1.90;;;;;;;-146.19;100.00;65364.44;10385250;28;20045;-61
2022/10/12 12:51:43;;;;;;;3.58;1.77;;;;;;;-146.19;100.00;65364.44;10388748;28;20046;-61
2022/10/12 12:57:12;;;;;;;2.47;1.83;;;;;;;-146.19;100.00;65364.44;10371616;28;20050;-61
2022/10/12 13:02:47;;;;;;;3.20;2.20;;;;;;;-146.19;100.00;65364.44;10343828;28;20046;-60
2022/10/12 13:08:15;;;;;;;3.28;2.08;;;;;;;-146.19;100.00;65364.44;10337385;28;20046;-62
2022/10/12 13:13:41;;;;;;;27.48;7.65;;;;;;;-146.19;100.00;65364.44;10346352;28;20046;-61
2022/10/12 13:19:02;;;;;;;14.05;5.07;;;;;;;-146.19;100.00;65364.44;10350690;28;20088;-62
2022/10/12 13:24:49;;;;;;;93.85;20.20;;;;;;;-146.19;100.00;65364.44;10324849;28;20046;-62
2022/10/12 13:30:29;;;;;;;32.65;8.35;;;;;;;-146.19;100.00;65364.44;10350040;28;20046;-62
2022/10/12 13:36:05;;;;;;;35.85;8.60;;;;;;;-146.19;100.00;65364.44;10350055;28;20042;-62
2022/10/12 13:41:29;;;;;;;32.95;7.20;;;;;;;-146.19;100.00;65364.44;10336926;28;20061;-61
2022/10/12 13:46:50;;;;;;;20.63;6.55;;;;;;;-146.19;100.00;65364.44;10335094;28;20073;-61
2022/10/12 13:52:10;;;;;;;18.17;5.50;;;;;;;-146.19;100.00;65364.44;10336374;28;20059;-61
2022/10/12 13:57:32;;;;;;;19.70;5.10;;;;;;;-146.19;100.00;65364.44;10335954;28;20093;-60
2022/10/12 14:02:56;;;;;;;17.23;4.78;;;;;;;-146.19;100.00;65364.44;10398431;28;20041;-61
2022/10/12 14:08:20;;;;;;;14.65;4.80;;;;;;;-146.19;100.00;65364.44;10378790;28;20387;-61
2022/10/12 14:13:40;;;;;;;11.88;4.25;;;;;;;-146.19;100.00;65364.44;10374624;28;20041;-60
2022/10/12 14:19:20;;;;;;;12.10;4.07;;;;;;;-146.19;100.00;65364.44;10392676;28;20045;-58
2022/10/12 14:24:40;;;;;;;14.02;3.60;;;;;;;-146.19;100.00;65364.44;10388735;28;20440;-60
2022/10/12 14:30:06;;;;;;;11.48;3.83;;;;;;;-146.19;100.00;65364.44;10388628;28;20038;-61
2022/10/12 14:35:29;;;;;;;10.60;3.55;;;;;;;-146.19;100.00;65364.44;10377840;28;20045;-60
2022/10/12 14:40:48;;;;;;;8.98;3.17;;;;;;;-146.19;100.00;65364.44;10375377;28;20069;-60
2022/10/12 14:46:08;;;;;;;9.85;3.85;;;;;;;-146.19;100.00;65364.44;10388344;28;20052;-59
2022/10/12 14:51:28;;;;;;;10.68;3.53;;;;;;;-146.19;100.00;65364.44;10373161;28;20104;-57
2022/10/12 14:56:47;;;;;;;11.20;3.65;;;;;;;-146.19;100.00;65364.44;10387671;28;20049;-61
2022/10/12 15:02:14;;;;;;;8.07;3.22;;;;;;;-146.19;100.00;65364.44;10375039;28;20093;-64
2022/10/12 15:07:34;;;;;;;11.85;3.80;;;;;;;-146.19;100.00;65364.44;10387600;28;20045;-61
2022/10/12 15:12:53;;;;;;;11.68;4.55;;;;;;;-146.19;100.00;65364.44;10375106;28;20048;-61
2022/10/12 15:18:13;;;;;;;11.07;4.68;;;;;;;-146.19;100.00;65364.44;10391297;28;20053;-60
2022/10/12 15:23:32;;;;;;;7.72;4.53;;;;;;;-146.19;100.00;65364.44;10386840;28;20046;-61
2022/10/12 15:28:52;;;;;;;13.50;4.38;;;;;;;-146.19;100.00;65364.44;10386695;28;20045;-62
2022/10/12 15:34:13;;;;;;;7.43;3.70;;;;;;;-146.19;100.00;65364.44;10384554;28;20091;-63
2022/10/12 15:39:32;;;;;;;6.95;3.80;;;;;;;-146.19;100.00;65364.44;10385282;28;20056;-60
2022/10/12 15:44:52;;;;;;;8.68;3.53;;;;;;;-146.19;100.00;65364.44;10374693;28;20037;-63
2022/10/12 15:50:13;;;;;;;9.93;3.70;;;;;;;-146.19;100.00;65364.44;10362998;28;20402;-63
2022/10/12 15:55:33;;;;;;;9.52;3.28;;;;;;;-146.19;100.00;65364.44;10385589;28;20096;-63
2022/10/12 16:00:53;;;;;;;9.77;3.80;;;;;;;-146.19;100.00;65364.44;10372215;28;20046;-64
2022/10/12 16:06:13;;;;;;;10.95;3.88;;;;;;;-146.19;100.00;65364.44;10385594;28;20456;-61
2022/10/12 16:11:32;;;;;;;9.07;3.40;;;;;;;-146.19;100.00;65364.44;10385421;28;20042;-61
2022/10/12 16:16:51;;;;;;;7.78;3.60;;;;;;;-146.19;100.00;65364.44;10367288;28;20102;-60
2022/10/12 16:22:11;;;;;;;9.73;3.60;;;;;;;-146.19;100.00;65364.44;10385298;28;20489;-62
2022/10/12 16:27:30;;;;;;;9.73;3.53;;;;;;;-146.19;100.00;65364.44;10367938;28;20061;-63
2022/10/12 16:32:50;;;;;;;13.75;3.72;;;;;;;-146.19;100.00;65364.44;10386688;28;20089;-63
2022/10/12 16:38:10;;;;;;;8.20;3.83;;;;;;;-146.19;100.00;65364.44;10380514;28;20034;-63
2022/10/12 16:43:29;;;;;;;8.95;4.43;;;;;;;-146.19;100.00;65364.44;10376358;28;20046;-62
2022/10/12 16:48:49;;;;;;;11.35;4.05;;;;;;;-146.19;100.00;65364.44;10390823;28;20038;-64
2022/10/12 16:54:08;;;;;;;10.77;4.10;;;;;;;-146.19;100.00;65364.44;10388906;28;20482;-62
2022/10/12 16:59:28;;;;;;;10.02;4.15;;;;;;;-146.19;100.00;65364.44;10346044;28;20058;-60
2022/10/12 17:04:47;;;;;;;10.50;3.60;;;;;;;-146.19;100.00;65364.44;10389918;28;20045;-60
2022/10/12 17:10:08;;;;;;;14.80;4.20;;;;;;;-146.19;100.00;65364.44;10360862;28;20046;-57
2022/10/12 17:15:28;;;;;;;9.23;3.92;;;;;;;-146.19;100.00;65364.44;10386248;28;20087;-60
2022/10/12 17:20:48;;;;;;;5.68;4.00;;;;;;;-146.19;100.00;65364.44;10378190;28;20050;-59
2022/10/12 17:26:07;;;;;;;7.78;3.75;;;;;;;-146.19;100.00;65364.44;10379825;28;20053;-62
2022/10/12 17:31:27;;;;;;;7.07;3.63;;;;;;;-146.19;100.00;65364.44;10388138;28;20050;-61
2022/10/12 17:36:48;;;;;;;7.70;4.10;;;;;;;-146.19;100.00;65364.44;10390832;28;20045;-63
2022/10/12 17:42:08;;;;;;;8.63;3.72;;;;;;;-146.19;100.00;65364.44;10372492;28;20046;-62
2022/10/12 17:47:29;;;;;;;13.13;4.00;;;;;;;-146.19;100.00;65364.44;10365071;28;20042;-62
2022/10/12 17:52:49;;;;;;;6.63;3.35;;;;;;;-146.19;100.00;65364.44;10357384;28;20035;-62
2022/10/12 17:58:08;;;;;;;5.70;3.30;;;;;;;-146.19;100.00;65364.44;10339154;28;20058;-64
2022/10/12 18:03:27;;;;;;;4.72;3.33;;;;;;;-146.19;100.00;65364.44;10372062;28;20045;-62
2022/10/12 18:08:48;;;;;;;7.68;3.63;;;;;;;-146.19;100.00;65364.44;10394171;28;20049;-63
2022/10/12 18:14:08;;;;;;;7.55;3.40;;;;;;;-146.19;100.00;65364.44;10381093;28;20048;-61
2022/10/12 18:19:28;;;;;;;8.40;3.63;;;;;;;-146.19;100.00;65364.44;10376845;28;20050;-63
2022/10/12 18:24:47;;;;;;;7.05;3.35;;;;;;;-146.19;100.00;65364.44;10393056;28;20042;-64
2022/10/12 18:30:07;;;;;;;4.05;3.00;;;;;;;-146.19;100.00;65364.44;10389063;28;20045;-60
2022/10/12 18:35:27;;;;;;;5.30;3.50;;;;;;;-146.19;100.00;65364.44;10386564;28;20587;-60
2022/10/12 18:40:47;;;;;;;5.63;2.92;;;;;;;-146.19;100.00;65364.44;10362113;28;20509;-61
2022/10/12 18:46:12;;;;;;;6.68;3.40;;;;;;;-146.19;100.00;65364.44;10387471;28;20513;-60
2022/10/12 18:51:34;;;;;;;14.70;3.28;;;;;;;-146.19;100.00;65364.44;10375998;28;20046;-61
2022/10/12 18:56:54;;;;;;;6.78;3.33;;;;;;;-146.19;100.00;65364.44;10380736;28;20120;-64
2022/10/12 19:02:16;;;;;;;6.55;3.33;;;;;;;-146.19;100.00;65364.44;10367054;28;20510;-64
2022/10/12 19:07:36;;;;;;;5.50;3.40;;;;;;;-146.19;100.00;65364.44;10387722;28;20493;-62
2022/10/12 19:12:57;;;;;;;4.68;3.30;;;;;;;-146.19;100.00;65364.44;10370909;28;20053;-63
2022/10/12 19:18:17;;;;;;;4.53;3.10;;;;;;;-146.19;100.00;65364.44;10375349;28;20426;-63
2022/10/12 19:23:37;;;;;;;7.25;3.40;;;;;;;-146.19;100.00;65364.44;10393042;28;20053;-62
2022/10/12 19:28:57;;;;;;;6.97;3.33;;;;;;;-146.19;100.00;65364.44;10370690;28;20049;-60
2022/10/12 19:34:18;;;;;;;5.55;3.65;;;;;;;-146.19;100.00;65364.44;10356366;28;20486;-62
2022/10/12 19:39:43;;;;;;;4.60;3.40;;;;;;;-146.19;100.00;65364.44;10322579;28;20153;-59
2022/10/12 19:45:03;;;;;;;6.80;3.45;;;;;;;-146.19;100.00;65364.44;10366317;28;20053;-60
2022/10/12 19:50:22;;;;;;;6.63;3.30;;;;;;;-146.19;100.00;65364.44;10386980;28;20034;-60
2022/10/12 19:55:41;;;;;;;9.40;3.63;;;;;;;-146.19;100.00;65364.44;10372443;28;20492;-61
2022/10/12 20:01:06;;;;;;;4.88;3.20;;;;;;;-146.19;100.00;65364.44;10366628;28;20065;-61
2022/10/12 20:06:27;;;;;;;5.18;3.38;;;;;;;-146.19;100.00;65364.44;10385724;28;20049;-60
2022/10/12 20:11:47;;;;;;;5.32;3.13;;;;;;;-146.19;100.00;65364.44;10359175;28;20050;-61
2022/10/12 20:17:06;;;;;;;5.95;3.60;;;;;;;-146.19;100.00;65364.44;10389670;28;20041;-61
2022/10/12 20:22:28;;;;;;;5.78;3.40;;;;;;;-146.19;100.00;65364.44;10369720;28;20058;-61
2022/10/12 20:27:48;;;;;;;4.63;3.25;;;;;;;-146.19;100.00;65364.44;10380494;28;20069;-62
2022/10/12 20:33:08;;;;;;;6.18;3.20;;;;;;;-146.19;100.00;65364.44;10397181;28;20042;-64
2022/10/12 20:38:28;;;;;;;5.63;3.28;;;;;;;-146.19;100.00;65364.44;10379234;28;20501;-61
2022/10/12 20:43:47;;;;;;;4.45;3.25;;;;;;;-146.19;100.00;65364.44;10392604;28;20050;-61
2022/10/12 20:49:08;;;;;;;4.43;3.42;;;;;;;-146.19;100.00;65364.44;10388203;28;20177;-60
2022/10/12 20:54:28;;;;;;;4.78;3.05;;;;;;;-146.19;100.00;65364.44;10375653;28;20048;-62
2022/10/12 20:59:47;;;;;;;4.80;3.20;;;;;;;-146.19;100.00;65364.44;10379889;28;20053;-60
2022/10/12 21:05:07;;;;;;;3.53;3.22;;;;;;;-146.19;100.00;65364.44;10377964;28;20069;-61
2022/10/12 21:10:26;;;;;;;5.05;3.30;;;;;;;-146.19;100.00;65364.44;10385970;28;20068;-60
2022/10/12 21:15:52;;;;;;;4.60;3.25;;;;;;;-146.19;100.00;65364.44;10394396;28;20485;-59
2022/10/12 21:21:17;;;;;;;5.15;2.90;;;;;;;-146.19;100.00;65364.44;10391023;28;20042;-60
2022/10/12 21:26:37;;;;;;;6.22;3.30;;;;;;;-146.19;100.00;65364.44;10391037;28;20046;-61
2022/10/12 21:31:57;;;;;;;5.32;3.42;;;;;;;-146.19;100.00;65364.44;10392267;28;20101;-61
2022/10/12 21:37:16;;;;;;;7.55;3.70;;;;;;;-146.19;100.00;65364.44;10350173;28;20061;-60
2022/10/12 21:42:35;;;;;;;9.35;4.55;;;;;;;-146.19;100.00;65364.44;10354341;28;20053;-62
2022/10/12 21:47:55;;;;;;;15.55;5.10;;;;;;;-146.19;100.00;65364.44;10339682;28;20505;-61
2022/10/12 21:53:14;;;;;;;16.80;5.60;;;;;;;-146.19;100.00;65364.44;10385758;28;20515;-61
2022/10/12 21:58:34;;;;;;;12.82;5.43;;;;;;;-146.19;100.00;65364.44;10385411;28;20061;-61
2022/10/12 22:03:59;;;;;;;15.32;6.03;;;;;;;-146.19;100.00;65364.44;10397413;28;20440;-61
2022/10/12 22:09:18;;;;;;;14.20;5.85;;;;;;;-146.19;100.00;65364.44;10389667;28;20050;-62
2022/10/12 22:14:38;;;;;;;17.73;6.28;;;;;;;-146.19;100.00;65364.44;10395075;28;20041;-61
2022/10/12 22:19:57;;;;;;;12.93;5.22;;;;;;;-146.19;100.00;65364.44;10389585;28;20058;-62
2022/10/12 22:25:17;;;;;;;13.05;5.53;;;;;;;-146.19;100.00;65364.44;10389168;28;20034;-61
2022/10/12 22:30:39;;;;;;;12.20;5.10;;;;;;;-146.19;100.00;65364.44;10385210;28;20050;-62
2022/10/12 22:36:00;;;;;;;9.30;4.70;;;;;;;-146.19;100.00;65364.44;10388663;28;20050;-61
2022/10/12 22:41:21;;;;;;;11.23;4.90;;;;;;;-146.19;100.00;65364.44;10373327;28;20052;-62
2022/10/12 22:46:40;;;;;;;10.40;4.72;;;;;;;-146.19;100.00;65364.44;10384432;28;20054;-62
2022/10/12 22:51:59;;;;;;;7.90;4.50;;;;;;;-146.19;100.00;65364.44;10387720;28;20038;-62
2022/10/12 22:57:19;;;;;;;9.60;4.53;;;;;;;-146.19;100.00;65364.44;10380724;28;20044;-61
2022/10/12 23:02:40;;;;;;;10.63;4.95;;;;;;;-146.19;100.00;65364.44;10373649;28;20073;-61
2022/10/12 23:07:59;;;;;;;8.57;4.75;;;;;;;-146.19;100.00;65364.44;10375848;28;20053;-61
2022/10/12 23:13:18;;;;;;;7.95;4.18;;;;;;;-146.19;100.00;65364.44;10388785;28;20057;-62
2022/10/12 23:18:39;;;;;;;9.63;4.40;;;;;;;-146.19;100.00;65364.44;10386835;28;20053;-61
2022/10/12 23:23:59;;;;;;;7.90;4.03;;;;;;;-146.19;100.00;65364.44;10385166;28;20047;-62
2022/10/12 23:29:19;;;;;;;9.10;3.95;;;;;;;-146.19;100.00;65364.44;10386700;28;20405;-62
2022/10/12 23:34:38;;;;;;;7.43;4.28;;;;;;;-146.19;100.00;65364.44;10371591;28;20046;-62
2022/10/12 23:39:58;;;;;;;7.80;4.13;;;;;;;-146.19;100.00;65364.44;10374939;28;20111;-61
2022/10/12 23:45:17;;;;;;;7.10;4.35;;;;;;;-146.19;100.00;65364.44;10386646;28;20038;-62
2022/10/12 23:50:40;;;;;;;7.63;3.78;;;;;;;-146.19;100.00;65364.44;10385815;28;20393;-62
2022/10/12 23:56:00;;;;;;;7.57;4.03;;;;;;;-146.19;100.00;65364.44;10385328;28;20057;-62
